createdAt,value
2022-08-16T00:01:56.765Z,11.90
2022-08-16T00:04:29.152Z,10.60
2022-08-16T00:06:57.624Z,10.80
2022-08-16T00:09:26.410Z,12.97
2022-08-16T00:11:57.514Z,11.87
2022-08-16T00:14:30.387Z,11.20
2022-08-16T00:17:12.074Z,11.23
2022-08-16T00:19:56.533Z,12.13
2022-08-16T00:22:25.579Z,13.57
2022-08-16T00:24:57.521Z,10.37
2022-08-16T00:27:28.013Z,12.80
2022-08-16T00:30:08.304Z,13.13
2022-08-16T00:32:38.680Z,14.20
2022-08-16T00:35:09.905Z,10.97
2022-08-16T00:37:58.322Z,11.33
2022-08-16T00:40:34.510Z,11.93
2022-08-16T00:43:12.339Z,10.17
2022-08-16T00:45:59.976Z,10.30
2022-08-16T00:48:43.793Z,10.33
2022-08-16T00:51:16.137Z,10.77
2022-08-16T00:53:46.002Z,10.97
2022-08-16T00:56:55.889Z,10.70
2022-08-16T00:59:15.199Z,14.27
2022-08-16T01:01:45.395Z,13.07
2022-08-16T01:04:29.568Z,13.20
2022-08-16T01:07:01.447Z,15.47
2022-08-16T01:09:33.684Z,14.33
2022-08-16T01:12:08.615Z,14.23
2022-08-16T01:14:45.286Z,12.93
2022-08-16T01:17:18.782Z,12.90
2022-08-16T01:19:53.245Z,10.40
2022-08-16T01:22:49.928Z,14.63
2022-08-16T01:25:23.767Z,14.70
2022-08-16T01:28:05.944Z,14.50
2022-08-16T01:30:40.062Z,13.10
2022-08-16T01:33:19.369Z,11.93
2022-08-16T01:35:53.315Z,12.33
2022-08-16T01:38:25.825Z,12.07
2022-08-16T01:41:02.211Z,13.40
2022-08-16T01:43:31.693Z,11.97
2022-08-16T01:46:37.155Z,13.47
2022-08-16T01:48:50.107Z,12.93
2022-08-16T01:51:22.726Z,13.43
2022-08-16T01:53:54.540Z,16.37
2022-08-16T01:56:26.985Z,12.93
2022-08-16T01:58:57.917Z,13.43
2022-08-16T02:01:27.944Z,12.40
2022-08-16T02:03:58.543Z,14.07
2022-08-16T02:06:46.060Z,13.73
2022-08-16T02:09:17.677Z,12.97
2022-08-16T02:11:53.554Z,11.53
2022-08-16T02:14:26.353Z,19.43
2022-08-16T02:16:55.203Z,12.17
2022-08-16T02:19:59.813Z,12.60
2022-08-16T02:22:33.667Z,12.07
2022-08-16T02:25:14.715Z,12.10
2022-08-16T02:27:50.790Z,18.33
2022-08-16T02:30:37.274Z,13.43
2022-08-16T02:33:12.674Z,13.53
2022-08-16T02:35:49.819Z,12.17
2022-08-16T02:38:24.324Z,12.43
2022-08-16T02:40:54.588Z,20.97
2022-08-16T02:43:26.818Z,20.57
2022-08-16T02:45:55.747Z,17.80
2022-08-16T02:48:29.991Z,20.27
2022-08-16T02:51:10.105Z,20.30
2022-08-16T02:53:44.833Z,20.10
2022-08-16T02:56:15.640Z,20.10
2022-08-16T02:58:46.433Z,15.90
2022-08-16T03:01:25.208Z,14.80
2022-08-16T03:04:39.998Z,14.97
2022-08-16T03:06:56.813Z,14.83
2022-08-16T03:09:28.777Z,17.30
2022-08-16T03:11:58.666Z,14.43
2022-08-16T03:14:30.772Z,17.23
2022-08-16T03:17:00.884Z,14.63
2022-08-16T03:19:47.347Z,21.57
2022-08-16T03:22:18.887Z,13.90
2022-08-16T03:24:48.045Z,13.53
2022-08-16T03:27:16.769Z,16.50
2022-08-16T03:29:54.339Z,12.53
2022-08-16T03:32:23.202Z,19.87
2022-08-16T03:34:54.519Z,14.70
2022-08-16T03:37:22.891Z,13.23
2022-08-16T03:39:56.367Z,14.07
2022-08-16T03:42:24.882Z,13.47
2022-08-16T03:45:03.051Z,13.70
2022-08-16T03:47:34.104Z,14.80
2022-08-16T03:50:03.830Z,11.57
2022-08-16T03:52:52.789Z,15.43
2022-08-16T03:55:31.334Z,13.97
2022-08-16T03:58:14.066Z,11.33
2022-08-16T04:00:43.898Z,17.00
2022-08-16T04:03:12.251Z,12.90
2022-08-16T04:05:44.188Z,12.50
2022-08-16T04:08:23.417Z,14.17
2022-08-16T04:10:54.177Z,13.60
2022-08-16T04:13:59.298Z,14.00
2022-08-16T04:16:26.768Z,14.63
2022-08-16T04:19:02.589Z,15.27
2022-08-16T04:21:33.400Z,13.43
2022-08-16T04:24:07.953Z,19.07
2022-08-16T04:26:37.031Z,13.87
2022-08-16T04:29:23.566Z,15.00
2022-08-16T04:31:57.993Z,14.87
2022-08-16T04:34:28.883Z,17.97
2022-08-16T04:37:01.437Z,18.97
2022-08-16T04:39:45.831Z,14.20
2022-08-16T04:42:16.737Z,13.07
2022-08-16T04:44:54.510Z,16.00
2022-08-16T04:47:31.731Z,15.17
2022-08-16T04:50:01.720Z,16.53
2022-08-16T04:52:34.488Z,14.53
2022-08-16T04:55:06.758Z,18.57
2022-08-16T04:57:36.939Z,15.23
2022-08-16T05:00:32.395Z,15.60
2022-08-16T05:03:01.300Z,16.57
2022-08-16T05:05:32.868Z,15.10
2022-08-16T05:08:28.870Z,16.50
2022-08-16T05:11:00.112Z,17.03
2022-08-16T05:13:40.843Z,15.17
2022-08-16T05:16:20.262Z,14.13
2022-08-16T05:18:53.125Z,14.17
2022-08-16T05:21:22.234Z,15.87
2022-08-16T05:23:58.661Z,14.03
2022-08-16T05:26:30.532Z,16.70
2022-08-16T05:28:59.449Z,13.60
2022-08-16T05:31:30.394Z,12.73
2022-08-16T05:34:04.305Z,13.47
2022-08-16T05:36:34.123Z,14.07
2022-08-16T05:39:08.802Z,14.63
2022-08-16T05:41:45.464Z,16.07
2022-08-16T05:44:23.711Z,19.33
2022-08-16T05:46:55.874Z,14.30
2022-08-16T05:49:39.644Z,20.10
2022-08-16T05:52:10.842Z,17.70
2022-08-16T05:54:46.708Z,18.47
2022-08-16T05:57:16.020Z,17.73
2022-08-16T05:59:45.599Z,18.17
2022-08-16T06:02:15.344Z,17.83
2022-08-16T06:04:48.052Z,18.47
2022-08-16T06:07:26.364Z,18.93
2022-08-16T06:09:59.664Z,17.23
2022-08-16T06:12:29.064Z,17.43
2022-08-16T06:14:59.969Z,17.40
2022-08-16T06:17:43.854Z,17.83
2022-08-16T06:20:23.243Z,16.10
2022-08-16T06:23:03.699Z,16.63
2022-08-16T06:25:40.155Z,15.80
2022-08-16T06:28:16.964Z,16.03
2022-08-16T06:31:01.905Z,19.43
2022-08-16T06:33:53.278Z,24.47
2022-08-16T06:36:51.653Z,30.73
2022-08-16T06:39:28.064Z,22.33
2022-08-16T06:41:58.258Z,19.53
2022-08-16T06:44:27.081Z,24.27
2022-08-16T06:46:55.621Z,15.10
2022-08-16T06:49:23.993Z,15.83
2022-08-16T06:51:53.970Z,15.17
2022-08-16T06:54:31.266Z,15.87
2022-08-16T06:57:00.998Z,21.67
2022-08-16T06:59:29.913Z,18.87
2022-08-16T07:02:33.221Z,16.80
2022-08-16T07:05:02.114Z,17.03
2022-08-16T07:07:34.376Z,16.07
2022-08-16T07:10:08.845Z,15.43
2022-08-16T07:12:47.382Z,18.70
2022-08-16T07:15:26.519Z,15.30
2022-08-16T07:17:56.852Z,19.43
2022-08-16T07:20:35.594Z,19.67
2022-08-16T07:23:17.191Z,16.53
2022-08-16T07:25:46.558Z,13.87
2022-08-16T07:28:20.813Z,17.23
2022-08-16T07:30:53.051Z,14.17
2022-08-16T07:33:53.396Z,15.30
2022-08-16T07:36:12.368Z,14.07
2022-08-16T07:38:52.365Z,17.50
2022-08-16T07:41:20.960Z,18.27
2022-08-16T07:43:49.043Z,14.20
2022-08-16T07:46:37.446Z,17.43
2022-08-16T07:49:11.231Z,13.57
2022-08-16T07:51:40.490Z,14.33
2022-08-16T07:54:20.973Z,16.33
2022-08-16T07:56:49.838Z,14.33
2022-08-16T07:59:20.249Z,21.13
2022-08-16T08:01:49.555Z,15.07
2022-08-16T08:04:22.070Z,19.80
2022-08-16T08:06:51.499Z,18.17
2022-08-16T08:09:21.238Z,14.13
2022-08-16T08:11:59.928Z,16.67
2022-08-16T08:14:30.418Z,11.80
2022-08-16T08:17:01.566Z,12.23
2022-08-16T08:19:34.025Z,13.53
2022-08-16T08:22:06.031Z,12.30
2022-08-16T08:24:43.989Z,10.53
2022-08-16T08:27:12.463Z,12.60
2022-08-16T08:30:51.031Z,12.10
2022-08-16T08:33:00.814Z,9.07
2022-08-16T08:35:30.012Z,6.03
2022-08-16T08:37:58.268Z,9.70
2022-08-16T08:40:30.527Z,8.50
2022-08-16T08:43:11.917Z,8.63
2022-08-16T08:45:53.321Z,8.17
2022-08-16T08:48:33.863Z,9.47
2022-08-16T08:51:05.180Z,6.63
2022-08-16T08:53:36.246Z,6.83
2022-08-16T08:56:23.158Z,6.03
2022-08-16T08:58:54.686Z,6.23
2022-08-16T09:01:31.833Z,6.00
2022-08-16T09:04:06.052Z,6.73
2022-08-16T09:06:35.177Z,6.37
2022-08-16T09:12:06.426Z,7.13
2022-08-16T09:14:35.865Z,6.10
2022-08-16T09:17:11.703Z,7.67
2022-08-16T09:19:55.292Z,6.00
2022-08-16T09:22:26.382Z,5.63
2022-08-16T09:25:04.426Z,6.87
2022-08-16T09:27:57.311Z,6.33
2022-08-16T09:30:36.426Z,6.47
2022-08-16T09:33:15.325Z,7.15
2022-08-16T09:35:46.888Z,5.90
2022-08-16T09:38:22.798Z,7.20
2022-08-16T09:41:01.914Z,8.20
2022-08-16T09:43:58.857Z,6.53
2022-08-16T09:46:48.288Z,8.30
2022-08-16T09:49:20.044Z,6.00
2022-08-16T09:51:53.718Z,8.53
2022-08-16T09:54:23.261Z,6.00
2022-08-16T09:56:53.784Z,13.83
2022-08-16T09:59:25.754Z,6.27
2022-08-16T10:01:59.798Z,5.75
2022-08-16T10:04:34.245Z,6.57
2022-08-16T10:07:15.316Z,6.65
2022-08-16T10:09:55.737Z,5.30
2022-08-16T10:12:43.551Z,7.72
2022-08-16T10:15:17.206Z,7.32
2022-08-16T10:18:01.381Z,5.13
2022-08-16T10:20:34.118Z,6.00
2022-08-16T10:23:07.221Z,7.23
2022-08-16T10:27:17.873Z,5.87
2022-08-16T10:28:29.686Z,5.93
2022-08-16T10:31:03.442Z,8.30
2022-08-16T10:33:34.315Z,4.97
2022-08-16T10:36:04.480Z,5.82
2022-08-16T10:38:42.140Z,6.75
2022-08-16T10:41:16.095Z,9.73
2022-08-16T10:43:45.314Z,5.93
2022-08-16T10:46:39.188Z,6.05
2022-08-16T10:49:10.382Z,6.53
2022-08-16T10:52:03.408Z,6.50
2022-08-16T10:54:29.097Z,5.70
2022-08-16T10:56:59.040Z,6.77
2022-08-16T10:59:39.028Z,5.63
2022-08-16T11:02:58.929Z,9.37
2022-08-16T11:05:14.166Z,7.03
2022-08-16T11:07:52.226Z,10.73
2022-08-16T11:19:06.056Z,6.03
2022-08-16T11:22:39.678Z,6.80
2022-08-16T11:24:39.693Z,6.07
2022-08-16T11:27:20.115Z,8.47
2022-08-16T11:29:52.227Z,6.00
2022-08-16T11:32:30.086Z,7.72
2022-08-16T11:35:10.855Z,9.10
2022-08-16T11:40:38.398Z,8.70
2022-08-16T11:43:10.132Z,7.95
2022-08-16T11:45:38.999Z,6.27
2022-08-16T11:48:10.887Z,8.90
2022-08-16T11:50:41.076Z,10.33
2022-08-16T11:53:09.862Z,7.70
2022-08-16T11:55:39.160Z,5.23
2022-08-16T11:58:14.375Z,5.60
2022-08-16T12:00:51.996Z,4.83
2022-08-16T12:03:34.439Z,5.90
2022-08-16T12:06:11.244Z,4.83
2022-08-16T12:09:00.896Z,5.60
2022-08-16T12:11:33.444Z,5.17
2022-08-16T12:14:02.162Z,6.40
2022-08-16T12:16:34.476Z,9.90
2022-08-16T12:19:04.305Z,4.53
2022-08-16T12:21:58.394Z,4.63
2022-08-16T12:24:27.527Z,6.63
2022-08-16T12:26:56.319Z,5.33
2022-08-16T12:29:25.789Z,6.27
2022-08-16T12:32:01.224Z,5.23
2022-08-16T12:34:53.265Z,7.27
2022-08-16T12:37:24.818Z,9.80
2022-08-16T12:39:58.027Z,5.93
2022-08-16T12:42:35.412Z,4.97
2022-08-16T12:45:06.269Z,5.13
2022-08-16T12:48:04.839Z,5.97
2022-08-16T12:50:39.095Z,7.87
2022-08-16T12:53:12.494Z,5.60
2022-08-16T12:55:43.806Z,7.33
2022-08-16T12:58:14.240Z,7.20
2022-08-16T13:01:01.602Z,5.70
2022-08-16T13:03:32.261Z,5.22
2022-08-16T13:06:12.580Z,5.10
2022-08-16T13:08:46.564Z,6.20
2022-08-16T13:11:17.741Z,8.00
2022-08-16T13:13:46.407Z,8.23
2022-08-16T13:16:24.855Z,5.97
2022-08-16T13:18:54.537Z,7.43
2022-08-16T13:21:24.150Z,6.88
2022-08-16T13:23:55.386Z,7.25
2022-08-16T13:26:26.402Z,5.40
2022-08-16T13:28:55.417Z,8.52
2022-08-16T13:31:24.258Z,6.50
2022-08-16T13:33:58.858Z,6.28
2022-08-16T13:39:18.259Z,6.55
2022-08-16T13:41:54.066Z,4.70
2022-08-16T13:44:39.214Z,3.45
2022-08-16T13:47:11.490Z,3.92
2022-08-16T13:49:41.505Z,7.20
2022-08-16T13:52:12.492Z,6.43
2022-08-16T13:54:42.320Z,5.47
2022-08-16T13:57:11.783Z,4.03
2022-08-16T13:59:41.108Z,5.95
2022-08-16T14:02:11.355Z,3.70
2022-08-16T14:04:43.985Z,5.45
2022-08-16T14:07:19.682Z,4.10
2022-08-16T14:09:55.298Z,4.20
2022-08-16T14:12:25.803Z,5.32
2022-08-16T14:14:56.603Z,6.18
2022-08-16T14:17:26.857Z,7.38
2022-08-16T14:19:59.734Z,6.40
2022-08-16T14:22:34.858Z,4.95
2022-08-16T14:25:12.300Z,5.00
2022-08-16T14:27:44.894Z,5.53
2022-08-16T14:30:15.881Z,7.05
2022-08-16T14:32:51.051Z,7.20
2022-08-16T14:35:36.601Z,6.80
2022-08-16T14:38:18.711Z,7.05
2022-08-16T14:40:54.762Z,4.13
2022-08-16T14:43:24.239Z,9.82
2022-08-16T14:45:54.657Z,4.18
2022-08-16T14:48:26.199Z,4.30
2022-08-16T14:50:55.735Z,8.27
2022-08-16T14:53:26.470Z,4.90
2022-08-16T14:55:56.635Z,5.10
2022-08-16T14:58:34.699Z,4.95
2022-08-16T15:01:41.505Z,6.40
2022-08-16T15:04:39.653Z,7.35
2022-08-16T15:07:05.186Z,7.63
2022-08-16T15:09:36.532Z,4.00
2022-08-16T15:12:26.786Z,4.50
2022-08-16T15:15:04.402Z,4.22
2022-08-16T15:17:42.482Z,5.95
2022-08-16T15:20:29.194Z,6.40
2022-08-16T15:23:00.877Z,3.90
2022-08-16T15:25:35.572Z,9.32
2022-08-16T15:28:13.048Z,5.22
2022-08-16T15:31:00.319Z,3.97
2022-08-16T15:33:29.539Z,5.68
2022-08-16T15:36:01.721Z,5.28
2022-08-16T15:39:02.294Z,7.32
2022-08-16T15:42:04.172Z,7.50
2022-08-16T15:44:45.074Z,4.32
2022-08-16T15:47:25.826Z,7.80
2022-08-16T15:49:56.093Z,3.97
2022-08-16T15:52:31.685Z,6.80
2022-08-16T15:55:34.638Z,5.57
2022-08-16T15:58:35.308Z,4.03
2022-08-16T16:00:57.718Z,6.57
2022-08-16T16:03:29.273Z,4.45
2022-08-16T16:06:07.087Z,10.43
2022-08-16T16:08:41.712Z,6.22
2022-08-16T16:11:10.458Z,7.50
2022-08-16T16:13:42.353Z,4.38
2022-08-16T16:16:13.408Z,6.53
2022-08-16T16:18:48.784Z,5.07
2022-08-16T16:21:20.331Z,9.63
2022-08-16T16:23:53.727Z,6.95
2022-08-16T16:26:24.854Z,6.13
2022-08-16T16:29:08.122Z,5.47
2022-08-16T16:31:59.244Z,8.27
2022-08-16T16:34:32.310Z,6.67
2022-08-16T16:37:04.182Z,6.78
2022-08-16T16:39:36.523Z,7.60
2022-08-16T16:42:29.173Z,12.47
2022-08-16T16:45:02.073Z,8.13
2022-08-16T16:47:40.853Z,5.20
2022-08-16T16:50:12.596Z,8.67
2022-08-16T16:52:44.655Z,5.43
2022-08-16T16:55:14.897Z,8.27
2022-08-16T16:58:00.469Z,8.40
2022-08-16T17:00:38.120Z,5.97
2022-08-16T17:03:17.092Z,5.50
2022-08-16T17:05:57.397Z,7.23
2022-08-16T17:08:31.683Z,11.17
2022-08-16T17:11:00.247Z,8.93
2022-08-16T17:13:29.213Z,10.43
2022-08-16T17:15:57.893Z,12.23
2022-08-16T17:19:15.690Z,10.10
2022-08-16T17:21:17.561Z,8.23
2022-08-16T17:23:58.257Z,11.10
2022-08-16T17:26:30.263Z,9.43
2022-08-16T17:29:17.022Z,7.87
2022-08-16T17:31:47.244Z,10.57
2022-08-16T17:34:28.553Z,7.00
2022-08-16T17:40:45.794Z,10.10
2022-08-16T17:43:15.262Z,8.80
2022-08-16T17:47:00.166Z,11.83
2022-08-16T17:53:41.789Z,8.33
2022-08-16T17:57:00.569Z,9.87
2022-08-16T17:59:29.402Z,10.10
2022-08-16T18:02:43.517Z,6.90
2022-08-16T18:05:16.518Z,9.20
2022-08-16T18:07:46.191Z,8.40
2022-08-16T18:10:32.745Z,6.60
2022-08-16T18:13:07.703Z,6.43
2022-08-16T18:15:36.470Z,15.07
2022-08-16T18:18:05.463Z,8.60
2022-08-16T18:20:53.130Z,8.50
2022-08-16T18:23:24.783Z,7.50
2022-08-16T18:25:55.859Z,10.00
2022-08-16T18:28:25.298Z,6.17
2022-08-16T18:30:58.760Z,9.40
2022-08-16T18:33:30.313Z,7.97
2022-08-16T18:36:01.197Z,6.40
2022-08-16T18:38:30.220Z,8.23
2022-08-16T18:40:58.589Z,10.67
2022-08-16T18:44:04.807Z,6.67
2022-08-16T18:46:16.084Z,10.90
2022-08-16T18:48:44.328Z,11.27
2022-08-16T18:51:21.613Z,6.60
2022-08-16T18:54:24.609Z,6.63
2022-08-16T18:56:55.325Z,11.20
2022-08-16T18:59:26.488Z,6.27
2022-08-16T19:01:55.517Z,7.90
2022-08-16T19:04:56.754Z,6.77
2022-08-16T19:07:19.181Z,8.50
2022-08-16T19:09:47.571Z,6.30
2022-08-16T19:12:16.331Z,8.77
2022-08-16T19:14:45.658Z,10.33
2022-08-16T19:17:13.877Z,5.90
2022-08-16T19:19:42.161Z,9.80
2022-08-16T19:22:10.733Z,5.97
2022-08-16T19:24:40.469Z,8.13
2022-08-16T19:27:14.016Z,4.87
2022-08-16T19:29:42.410Z,8.87
2022-08-16T19:32:17.840Z,7.93
2022-08-16T19:34:46.140Z,7.00
2022-08-16T19:37:15.132Z,6.80
2022-08-16T19:40:37.877Z,6.63
2022-08-16T19:43:26.282Z,8.93
2022-08-16T19:45:54.969Z,9.20
2022-08-16T19:48:23.550Z,4.90
2022-08-16T19:50:52.097Z,5.83
2022-08-16T19:53:20.742Z,6.03
2022-08-16T19:55:49.076Z,7.37
2022-08-16T19:58:17.459Z,5.27
2022-08-16T20:00:51.055Z,4.67
2022-08-16T20:03:25.749Z,6.17
2022-08-16T20:05:54.380Z,5.33
2022-08-16T20:08:23.468Z,7.07
2022-08-16T20:10:51.780Z,8.13
2022-08-16T20:13:22.274Z,6.90
2022-08-16T20:15:53.080Z,5.37
2022-08-16T20:18:25.494Z,6.33
2022-08-16T20:20:55.888Z,6.73
2022-08-16T20:23:25.323Z,4.60
2022-08-16T20:25:55.735Z,8.83
2022-08-16T20:28:39.379Z,4.93
2022-08-16T20:31:14.474Z,4.73
2022-08-16T20:33:42.867Z,4.63
2022-08-16T20:36:16.574Z,7.80
2022-08-16T20:38:47.706Z,7.50
2022-08-16T20:41:16.345Z,10.63
2022-08-16T20:43:45.598Z,6.30
2022-08-16T20:46:16.124Z,6.17
2022-08-16T20:48:44.339Z,7.47
2022-08-16T20:51:12.775Z,7.97
2022-08-16T20:53:41.745Z,9.60
2022-08-16T20:56:11.210Z,11.53
2022-08-16T20:58:39.704Z,8.17
2022-08-16T21:01:09.895Z,11.13
2022-08-16T21:03:40.003Z,6.47
2022-08-16T21:06:09.898Z,8.07
2022-08-16T21:08:52.303Z,7.70
2022-08-16T21:11:23.915Z,5.53
2022-08-16T21:13:55.355Z,6.07
2022-08-16T21:16:29.068Z,4.03
2022-08-16T21:18:58.886Z,4.83
2022-08-16T21:21:32.030Z,4.73
2022-08-16T21:24:02.409Z,6.17
2022-08-16T21:26:31.474Z,5.07
2022-08-16T21:28:59.954Z,4.47
2022-08-16T21:31:29.919Z,9.70
2022-08-16T21:34:01.845Z,4.47
2022-08-16T21:36:34.553Z,6.97
2022-08-16T21:39:06.970Z,6.30
2022-08-16T21:41:36.348Z,6.03
2022-08-16T21:44:05.226Z,7.20
2022-08-16T21:46:34.330Z,4.17
2022-08-16T21:49:06.217Z,7.90
2022-08-16T21:51:36.486Z,4.80
2022-08-16T21:54:05.042Z,7.23
2022-08-16T21:56:33.698Z,5.53
2022-08-16T21:59:06.585Z,9.57
2022-08-16T22:01:35.149Z,5.10
2022-08-16T22:04:36.689Z,6.70
2022-08-16T22:06:54.404Z,6.00
2022-08-16T22:09:23.209Z,6.03
2022-08-16T22:11:51.689Z,8.47
2022-08-16T22:14:19.923Z,6.23
2022-08-16T22:16:48.096Z,5.30
2022-08-16T22:19:18.378Z,7.07
2022-08-16T22:21:47.166Z,7.23
2022-08-16T22:24:15.367Z,5.33
2022-08-16T22:26:43.851Z,5.43
2022-08-16T22:29:15.170Z,5.33
2022-08-16T22:31:44.592Z,9.63
2022-08-16T22:34:12.932Z,5.57
2022-08-16T22:36:42.807Z,7.37
2022-08-16T22:39:13.100Z,6.23
2022-08-16T22:41:45.482Z,8.53
2022-08-16T22:44:14.125Z,8.80
2022-08-16T22:46:42.520Z,7.17
2022-08-16T22:49:12.069Z,7.20
2022-08-16T22:51:43.049Z,4.63
2022-08-16T22:54:43.892Z,6.17
2022-08-16T22:57:00.490Z,4.80
2022-08-16T22:59:30.476Z,11.03
2022-08-16T23:01:59.210Z,5.90
2022-08-16T23:04:27.551Z,9.00
2022-08-16T23:06:57.390Z,7.17
2022-08-16T23:09:25.838Z,7.00
2022-08-16T23:11:54.297Z,6.00
2022-08-16T23:14:22.548Z,4.77
2022-08-16T23:16:50.769Z,6.93
2022-08-16T23:19:19.153Z,11.50
2022-08-16T23:21:49.455Z,12.37
2022-08-16T23:24:20.658Z,9.13
2022-08-16T23:26:49.803Z,8.03
2022-08-16T23:29:25.625Z,5.00
2022-08-16T23:31:58.425Z,5.60
2022-08-16T23:34:28.917Z,5.23
2022-08-16T23:36:57.896Z,4.83
2022-08-16T23:39:28.325Z,8.70
2022-08-16T23:41:56.839Z,9.33
2022-08-16T23:44:55.664Z,6.43
2022-08-16T23:47:14.830Z,10.60
2022-08-16T23:50:00.280Z,5.23
2022-08-16T23:52:39.266Z,6.83
2022-08-16T23:55:21.063Z,7.37
2022-08-16T23:57:49.651Z,11.60
